sensor_id;sensor_type;location;lat;lon;timestamp;pressure;altitude;pressure_sealevel;temperature;humidity
73455;BME280;61690;51.824;6.306;2022-07-06T00:00:59;102411.50;;;21.70;nan
73455;BME280;61690;51.824;6.306;2022-07-06T00:03:25;102409.81;;;21.69;nan
73455;BME280;61690;51.824;6.306;2022-07-06T00:05:50;102403.69;;;21.67;nan
73455;BME280;61690;51.824;6.306;2022-07-06T00:08:15;102402.78;;;21.68;nan
73455;BME280;61690;51.824;6.306;2022-07-06T00:10:41;102408.06;;;21.68;nan
73455;BME280;61690;51.824;6.306;2022-07-06T00:13:06;102407.22;;;21.67;nan
73455;BME280;61690;51.824;6.306;2022-07-06T00:15:32;102409.88;;;21.67;nan
73455;BME280;61690;51.824;6.306;2022-07-06T00:17:57;102410.81;;;21.66;nan
73455;BME280;61690;51.824;6.306;2022-07-06T00:20:22;102411.75;;;21.65;nan
73455;BME280;61690;51.824;6.306;2022-07-06T00:22:48;102405.59;;;21.65;nan
73455;BME280;61690;51.824;6.306;2022-07-06T00:25:13;102411.84;;;21.64;nan
73455;BME280;61690;51.824;6.306;2022-07-06T00:27:38;102408.22;;;21.65;nan
73455;BME280;61690;51.824;6.306;2022-07-06T00:30:04;102409.19;;;21.64;nan
73455;BME280;61690;51.824;6.306;2022-07-06T00:32:29;102408.34;;;21.63;nan
73455;BME280;61690;51.824;6.306;2022-07-06T00:34:55;102405.78;;;21.62;nan
73455;BME280;61690;51.824;6.306;2022-07-06T00:37:20;102414.56;;;21.62;nan
73455;BME280;61690;51.824;6.306;2022-07-06T00:39:45;102412.88;;;21.61;nan
73455;BME280;61690;51.824;6.306;2022-07-06T00:42:11;102413.72;;;21.62;nan
73455;BME280;61690;51.824;6.306;2022-07-06T00:44:36;102417.28;;;21.61;nan
73455;BME280;61690;51.824;6.306;2022-07-06T00:47:01;102418.16;;;21.61;nan
73455;BME280;61690;51.824;6.306;2022-07-06T00:49:27;102413.88;;;21.59;nan
73455;BME280;61690;51.824;6.306;2022-07-06T00:52:11;102413.88;;;21.59;nan
73455;BME280;61690;51.824;6.306;2022-07-06T00:54:37;102413.94;;;21.57;nan
73455;BME280;61690;51.824;6.306;2022-07-06T00:57:04;102412.19;;;21.58;nan
73455;BME280;61690;51.824;6.306;2022-07-06T00:59:30;102412.19;;;21.58;nan
73455;BME280;61690;51.824;6.306;2022-07-06T01:01:55;102412.19;;;21.58;nan
73455;BME280;61690;51.824;6.306;2022-07-06T01:04:21;102409.59;;;21.56;nan
73455;BME280;61690;51.824;6.306;2022-07-06T01:06:46;102405.16;;;21.57;nan
73455;BME280;61690;51.824;6.306;2022-07-06T01:09:12;102410.53;;;21.55;nan
73455;BME280;61690;51.824;6.306;2022-07-06T01:11:38;102410.53;;;21.55;nan
73455;BME280;61690;51.824;6.306;2022-07-06T01:14:03;102405.34;;;21.53;nan
73455;BME280;61690;51.824;6.306;2022-07-06T01:16:29;102410.63;;;21.53;nan
73455;BME280;61690;51.824;6.306;2022-07-06T01:18:55;102411.56;;;21.52;nan
73455;BME280;61690;51.824;6.306;2022-07-06T01:21:20;102413.34;;;21.52;nan
73455;BME280;61690;51.824;6.306;2022-07-06T01:23:47;102409.84;;;21.51;nan
73455;BME280;61690;51.824;6.306;2022-07-06T01:26:14;102404.53;;;21.51;nan
73455;BME280;61690;51.824;6.306;2022-07-06T01:28:41;102411.63;;;21.51;nan
73455;BME280;61690;51.824;6.306;2022-07-06T01:31:14;102409.94;;;21.50;nan
73455;BME280;61690;51.824;6.306;2022-07-06T01:33:40;102405.56;;;21.49;nan
73455;BME280;61690;51.824;6.306;2022-07-06T01:36:05;102409.06;;;21.49;nan
73455;BME280;61690;51.824;6.306;2022-07-06T01:38:31;102407.38;;;21.48;nan
73455;BME280;61690;51.824;6.306;2022-07-06T01:40:56;102406.53;;;21.48;nan
73455;BME280;61690;51.824;6.306;2022-07-06T01:43:21;102404.81;;;21.47;nan
73455;BME280;61690;51.824;6.306;2022-07-06T01:45:47;102406.59;;;21.46;nan
73455;BME280;61690;51.824;6.306;2022-07-06T01:48:12;102405.75;;;21.46;nan
73455;BME280;61690;51.824;6.306;2022-07-06T01:50:37;102406.59;;;21.46;nan
73455;BME280;61690;51.824;6.306;2022-07-06T01:53:03;102408.47;;;21.44;nan
73455;BME280;61690;51.824;6.306;2022-07-06T01:55:28;102405.84;;;21.44;nan
73455;BME280;61690;51.824;6.306;2022-07-06T01:57:53;102406.69;;;21.45;nan
73455;BME280;61690;51.824;6.306;2022-07-06T02:00:18;102404.06;;;21.43;nan
73455;BME280;61690;51.824;6.306;2022-07-06T02:02:44;102402.31;;;21.44;nan
73455;BME280;61690;51.824;6.306;2022-07-06T02:05:09;102397.94;;;21.43;nan
73455;BME280;61690;51.824;6.306;2022-07-06T02:07:34;102391.78;;;21.42;nan
73455;BME280;61690;51.824;6.306;2022-07-06T02:10:00;102400.59;;;21.43;nan
73455;BME280;61690;51.824;6.306;2022-07-06T02:12:25;102391.88;;;21.41;nan
73455;BME280;61690;51.824;6.306;2022-07-06T02:14:51;102396.22;;;21.42;nan
73455;BME280;61690;51.824;6.306;2022-07-06T02:17:17;102389.28;;;21.39;nan
73455;BME280;61690;51.824;6.306;2022-07-06T02:19:42;102389.28;;;21.39;nan
73455;BME280;61690;51.824;6.306;2022-07-06T02:22:07;102398.09;;;21.40;nan
73455;BME280;61690;51.824;6.306;2022-07-06T02:24:33;102393.81;;;21.37;nan
73455;BME280;61690;51.824;6.306;2022-07-06T02:26:58;102396.47;;;21.37;nan
73455;BME280;61690;51.824;6.306;2022-07-06T02:29:23;102389.44;;;21.36;nan
73455;BME280;61690;51.824;6.306;2022-07-06T02:31:49;102392.88;;;21.38;nan
73455;BME280;61690;51.824;6.306;2022-07-06T02:34:14;102393.81;;;21.37;nan
73455;BME280;61690;51.824;6.306;2022-07-06T02:36:39;102385.03;;;21.37;nan
73455;BME280;61690;51.824;6.306;2022-07-06T02:39:05;102391.25;;;21.35;nan
73455;BME280;61690;51.824;6.306;2022-07-06T02:41:30;102408.94;;;21.35;nan
73455;BME280;61690;51.824;6.306;2022-07-06T02:43:55;102410.72;;;21.34;nan
73455;BME280;61690;51.824;6.306;2022-07-06T02:46:21;102405.44;;;21.34;nan
73455;BME280;61690;51.824;6.306;2022-07-06T02:48:46;102409.84;;;21.34;nan
73455;BME280;61690;51.824;6.306;2022-07-06T02:51:11;102413.44;;;21.33;nan
73455;BME280;61690;51.824;6.306;2022-07-06T02:53:37;102416.94;;;21.33;nan
73455;BME280;61690;51.824;6.306;2022-07-06T02:56:02;102406.44;;;21.32;nan
73455;BME280;61690;51.824;6.306;2022-07-06T02:58:27;102402.88;;;21.33;nan
73455;BME280;61690;51.824;6.306;2022-07-06T03:00:53;102403.78;;;21.32;nan
73455;BME280;61690;51.824;6.306;2022-07-06T03:03:18;102406.44;;;21.32;nan
73455;BME280;61690;51.824;6.306;2022-07-06T03:05:43;102409.09;;;21.32;nan
73455;BME280;61690;51.824;6.306;2022-07-06T03:08:11;102417.97;;;21.31;nan
73455;BME280;61690;51.824;6.306;2022-07-06T03:10:37;102415.31;;;21.31;nan
73455;BME280;61690;51.824;6.306;2022-07-06T03:13:02;102420.63;;;21.31;nan
73455;BME280;61690;51.824;6.306;2022-07-06T03:15:27;102417.97;;;21.31;nan
73455;BME280;61690;51.824;6.306;2022-07-06T03:17:53;102423.28;;;21.31;nan
73455;BME280;61690;51.824;6.306;2022-07-06T03:20:18;102418.06;;;21.29;nan
73455;BME280;61690;51.824;6.306;2022-07-06T03:22:43;102421.63;;;21.28;nan
73455;BME280;61690;51.824;6.306;2022-07-06T03:25:09;102416.25;;;21.30;nan
73455;BME280;61690;51.824;6.306;2022-07-06T03:27:34;102417.22;;;21.29;nan
73455;BME280;61690;51.824;6.306;2022-07-06T03:30:01;102421.63;;;21.28;nan
73455;BME280;61690;51.824;6.306;2022-07-06T03:32:26;102426.91;;;21.28;nan
73455;BME280;61690;51.824;6.306;2022-07-06T03:34:51;102427.78;;;21.29;nan
73455;BME280;61690;51.824;6.306;2022-07-06T03:37:17;102419.94;;;21.27;nan
73455;BME280;61690;51.824;6.306;2022-07-06T03:39:42;102425.22;;;21.27;nan
73455;BME280;61690;51.824;6.306;2022-07-06T03:42:07;102416.31;;;21.28;nan
73455;BME280;61690;51.824;6.306;2022-07-06T03:44:33;102415.56;;;21.26;nan
73455;BME280;61690;51.824;6.306;2022-07-06T03:46:58;102426.13;;;21.26;nan
73455;BME280;61690;51.824;6.306;2022-07-06T03:49:23;102414.72;;;21.26;nan
73455;BME280;61690;51.824;6.306;2022-07-06T03:51:52;102420.00;;;21.26;nan
73455;BME280;61690;51.824;6.306;2022-07-06T03:54:17;102420.84;;;21.26;nan
73455;BME280;61690;51.824;6.306;2022-07-06T03:56:42;102422.66;;;21.26;nan
73455;BME280;61690;51.824;6.306;2022-07-06T03:59:08;102420.00;;;21.26;nan
73455;BME280;61690;51.824;6.306;2022-07-06T04:01:33;102423.50;;;21.26;nan
73455;BME280;61690;51.824;6.306;2022-07-06T04:03:58;102419.16;;;21.25;nan
73455;BME280;61690;51.824;6.306;2022-07-06T04:06:24;102421.81;;;21.25;nan
73455;BME280;61690;51.824;6.306;2022-07-06T04:08:50;102426.25;;;21.25;nan
73455;BME280;61690;51.824;6.306;2022-07-06T04:11:15;102424.53;;;21.24;nan
73455;BME280;61690;51.824;6.306;2022-07-06T04:13:40;102429.81;;;21.24;nan
73455;BME280;61690;51.824;6.306;2022-07-06T04:16:06;102426.25;;;21.25;nan
73455;BME280;61690;51.824;6.306;2022-07-06T04:18:32;102424.53;;;21.24;nan
73455;BME280;61690;51.824;6.306;2022-07-06T04:20:57;102425.38;;;21.24;nan
73455;BME280;61690;51.824;6.306;2022-07-06T04:23:23;102432.47;;;21.24;nan
73455;BME280;61690;51.824;6.306;2022-07-06T04:25:48;102431.53;;;21.25;nan
73455;BME280;61690;51.824;6.306;2022-07-06T04:28:14;102427.16;;;21.24;nan
73455;BME280;61690;51.824;6.306;2022-07-06T04:30:39;102419.22;;;21.24;nan
73455;BME280;61690;51.824;6.306;2022-07-06T04:33:04;102422.78;;;21.23;nan
73455;BME280;61690;51.824;6.306;2022-07-06T04:35:30;102416.59;;;21.24;nan
73455;BME280;61690;51.824;6.306;2022-07-06T04:37:55;102421.94;;;21.22;nan
73455;BME280;61690;51.824;6.306;2022-07-06T04:40:20;102417.50;;;21.23;nan
73455;BME280;61690;51.824;6.306;2022-07-06T04:42:46;102415.81;;;21.22;nan
73455;BME280;61690;51.824;6.306;2022-07-06T04:45:11;102407.88;;;21.22;nan
73455;BME280;61690;51.824;6.306;2022-07-06T04:47:37;102410.53;;;21.22;nan
73455;BME280;61690;51.824;6.306;2022-07-06T04:50:03;102407.88;;;21.22;nan
73455;BME280;61690;51.824;6.306;2022-07-06T04:52:29;102408.78;;;21.21;nan
73455;BME280;61690;51.824;6.306;2022-07-06T04:54:54;102410.53;;;21.22;nan
73455;BME280;61690;51.824;6.306;2022-07-06T04:57:20;102415.81;;;21.22;nan
73455;BME280;61690;51.824;6.306;2022-07-06T04:59:45;102414.97;;;21.21;nan
73455;BME280;61690;51.824;6.306;2022-07-06T05:02:11;102415.81;;;21.22;nan
73455;BME280;61690;51.824;6.306;2022-07-06T05:04:36;102414.97;;;21.21;nan
73455;BME280;61690;51.824;6.306;2022-07-06T05:07:02;102408.78;;;21.21;nan
73455;BME280;61690;51.824;6.306;2022-07-06T05:09:27;102415.81;;;21.22;nan
73455;BME280;61690;51.824;6.306;2022-07-06T05:11:52;102411.38;;;21.22;nan
73455;BME280;61690;51.824;6.306;2022-07-06T05:14:18;102403.34;;;21.24;nan
73455;BME280;61690;51.824;6.306;2022-07-06T05:16:43;102405.91;;;21.25;nan
73455;BME280;61690;51.824;6.306;2022-07-06T05:19:08;102408.50;;;21.27;nan
73455;BME280;61690;51.824;6.306;2022-07-06T05:21:34;102416.25;;;21.30;nan
73455;BME280;61690;51.824;6.306;2022-07-06T05:24:00;102416.09;;;21.33;nan
73455;BME280;61690;51.824;6.306;2022-07-06T05:26:26;102417.78;;;21.34;nan
73455;BME280;61690;51.824;6.306;2022-07-06T05:28:51;102429.34;;;21.33;nan
73455;BME280;61690;51.824;6.306;2022-07-06T05:31:16;102431.13;;;21.32;nan
73455;BME280;61690;51.824;6.306;2022-07-06T05:33:42;102442.56;;;21.33;nan
73455;BME280;61690;51.824;6.306;2022-07-06T05:36:08;102442.56;;;21.33;nan
73455;BME280;61690;51.824;6.306;2022-07-06T05:38:33;102446.91;;;21.34;nan
73455;BME280;61690;51.824;6.306;2022-07-06T05:40:58;102446.91;;;21.34;nan
73455;BME280;61690;51.824;6.306;2022-07-06T05:43:24;102447.59;;;21.38;nan
73455;BME280;61690;51.824;6.306;2022-07-06T05:45:49;102455.31;;;21.42;nan
73455;BME280;61690;51.824;6.306;2022-07-06T05:48:14;102446.44;;;21.43;nan
73455;BME280;61690;51.824;6.306;2022-07-06T05:50:59;102451.59;;;21.46;nan
73455;BME280;61690;51.824;6.306;2022-07-06T05:53:24;102449.72;;;21.48;nan
73455;BME280;61690;51.824;6.306;2022-07-06T05:55:49;102453.16;;;21.50;nan
73455;BME280;61690;51.824;6.306;2022-07-06T05:58:15;102453.00;;;21.53;nan
73455;BME280;61690;51.824;6.306;2022-07-06T06:00:41;102453.66;;;21.57;nan
73455;BME280;61690;51.824;6.306;2022-07-06T06:03:06;102453.44;;;21.62;nan
73455;BME280;61690;51.824;6.306;2022-07-06T06:05:31;102455.91;;;21.65;nan
73455;BME280;61690;51.824;6.306;2022-07-06T06:07:57;102454.03;;;21.67;nan
73455;BME280;61690;51.824;6.306;2022-07-06T06:10:22;102452.25;;;21.67;nan
73455;BME280;61690;51.824;6.306;2022-07-06T06:12:49;102452.19;;;21.69;nan
73455;BME280;61690;51.824;6.306;2022-07-06T06:15:14;102451.16;;;21.71;nan
73455;BME280;61690;51.824;6.306;2022-07-06T06:17:40;102452.00;;;21.72;nan
73455;BME280;61690;51.824;6.306;2022-07-06T06:20:08;102454.56;;;21.73;nan
73455;BME280;61690;51.824;6.306;2022-07-06T06:22:49;102456.19;;;21.76;nan
73455;BME280;61690;51.824;6.306;2022-07-06T06:25:19;102453.38;;;21.79;nan
73455;BME280;61690;51.824;6.306;2022-07-06T06:27:45;102460.38;;;21.80;nan
73455;BME280;61690;51.824;6.306;2022-07-06T06:30:12;102464.75;;;21.81;nan
73455;BME280;61690;51.824;6.306;2022-07-06T06:32:37;102453.22;;;21.82;nan
73455;BME280;61690;51.824;6.306;2022-07-06T06:35:03;102462.09;;;21.81;nan
73455;BME280;61690;51.824;6.306;2022-07-06T06:37:29;102456.78;;;21.81;nan
73455;BME280;61690;51.824;6.306;2022-07-06T06:39:54;102462.00;;;21.83;nan
73455;BME280;61690;51.824;6.306;2022-07-06T06:42:20;102462.78;;;21.85;nan
73455;BME280;61690;51.824;6.306;2022-07-06T06:44:45;102450.38;;;21.85;nan
73455;BME280;61690;51.824;6.306;2022-07-06T06:47:10;102453.88;;;21.86;nan
73455;BME280;61690;51.824;6.306;2022-07-06T06:49:36;102460.81;;;21.88;nan
73455;BME280;61690;51.824;6.306;2022-07-06T06:52:01;102459.88;;;21.89;nan
73455;BME280;61690;51.824;6.306;2022-07-06T06:54:26;102454.56;;;21.89;nan
73455;BME280;61690;51.824;6.306;2022-07-06T06:56:52;102462.50;;;21.89;nan
73455;BME280;61690;51.824;6.306;2022-07-06T06:59:17;102454.56;;;21.89;nan
73455;BME280;61690;51.824;6.306;2022-07-06T07:01:43;102455.34;;;21.91;nan
73455;BME280;61690;51.824;6.306;2022-07-06T07:04:08;102463.13;;;21.95;nan
73455;BME280;61690;51.824;6.306;2022-07-06T07:06:33;102461.25;;;21.97;nan
73455;BME280;61690;51.824;6.306;2022-07-06T07:08:59;102471.00;;;21.96;nan
73455;BME280;61690;51.824;6.306;2022-07-06T07:11:24;102472.69;;;21.97;nan
73455;BME280;61690;51.824;6.306;2022-07-06T07:13:50;102475.25;;;21.99;nan
73455;BME280;61690;51.824;6.306;2022-07-06T07:16:15;102474.22;;;22.01;nan
73455;BME280;61690;51.824;6.306;2022-07-06T07:18:40;102475.09;;;22.02;nan
73455;BME280;61690;51.824;6.306;2022-07-06T07:21:06;102480.31;;;22.03;nan
73455;BME280;61690;51.824;6.306;2022-07-06T07:23:31;102478.53;;;22.04;nan
73455;BME280;61690;51.824;6.306;2022-07-06T07:25:57;102474.91;;;22.05;nan
73455;BME280;61690;51.824;6.306;2022-07-06T07:28:22;102478.34;;;22.07;nan
73455;BME280;61690;51.824;6.306;2022-07-06T07:30:48;102477.34;;;22.09;nan
73455;BME280;61690;51.824;6.306;2022-07-06T07:33:15;102475.38;;;22.13;nan
73455;BME280;61690;51.824;6.306;2022-07-06T07:35:40;102479.72;;;22.14;nan
73455;BME280;61690;51.824;6.306;2022-07-06T07:38:05;102485.88;;;22.15;nan
73455;BME280;61690;51.824;6.306;2022-07-06T07:40:31;102483.97;;;22.17;nan
73455;BME280;61690;51.824;6.306;2022-07-06T07:42:56;102483.91;;;22.18;nan
73455;BME280;61690;51.824;6.306;2022-07-06T07:45:21;102480.31;;;22.19;nan
73455;BME280;61690;51.824;6.306;2022-07-06T07:47:49;102484.78;;;22.19;nan
73455;BME280;61690;51.824;6.306;2022-07-06T07:50:15;102479.38;;;22.20;nan
73455;BME280;61690;51.824;6.306;2022-07-06T07:52:40;102480.91;;;22.24;nan
73455;BME280;61690;51.824;6.306;2022-07-06T07:55:06;102480.91;;;22.24;nan
73455;BME280;61690;51.824;6.306;2022-07-06T07:57:35;102481.81;;;22.25;nan
73455;BME280;61690;51.824;6.306;2022-07-06T08:00:04;102479.09;;;22.26;nan
73455;BME280;61690;51.824;6.306;2022-07-06T08:02:30;102475.47;;;22.27;nan
73455;BME280;61690;51.824;6.306;2022-07-06T08:04:55;102469.31;;;22.27;nan
73455;BME280;61690;51.824;6.306;2022-07-06T08:07:21;102466.59;;;22.28;nan
73455;BME280;61690;51.824;6.306;2022-07-06T08:09:46;102477.00;;;22.31;nan
73455;BME280;61690;51.824;6.306;2022-07-06T08:12:12;102469.91;;;22.32;nan
73455;BME280;61690;51.824;6.306;2022-07-06T08:14:40;102465.41;;;22.34;nan
73455;BME280;61690;51.824;6.306;2022-07-06T08:17:05;102464.50;;;22.34;nan
73455;BME280;61690;51.824;6.306;2022-07-06T08:19:32;102457.94;;;22.41;nan
73455;BME280;61690;51.824;6.306;2022-07-06T08:21:58;102460.94;;;22.35;nan
73455;BME280;61690;51.824;6.306;2022-07-06T08:24:23;102458.53;;;22.30;nan
73455;BME280;61690;51.824;6.306;2022-07-06T08:27:04;102456.00;;;22.28;nan
73455;BME280;61690;51.824;6.306;2022-07-06T08:29:30;102461.38;;;22.27;nan
73455;BME280;61690;51.824;6.306;2022-07-06T08:31:56;102464.88;;;22.27;nan
73455;BME280;61690;51.824;6.306;2022-07-06T08:34:22;102468.47;;;22.26;nan
73455;BME280;61690;51.824;6.306;2022-07-06T08:36:48;102471.91;;;22.28;nan
73455;BME280;61690;51.824;6.306;2022-07-06T08:39:13;102469.13;;;22.30;nan
73455;BME280;61690;51.824;6.306;2022-07-06T08:41:42;102469.91;;;22.32;nan
73455;BME280;61690;51.824;6.306;2022-07-06T08:44:10;102462.63;;;22.36;nan
73455;BME280;61690;51.824;6.306;2022-07-06T08:46:38;102465.28;;;22.36;nan
73455;BME280;61690;51.824;6.306;2022-07-06T08:49:06;102467.94;;;22.36;nan
73455;BME280;61690;51.824;6.306;2022-07-06T08:51:49;102460.09;;;22.34;nan
73455;BME280;61690;51.824;6.306;2022-07-06T08:54:15;102458.38;;;22.33;nan
73455;BME280;61690;51.824;6.306;2022-07-06T08:56:41;102460.94;;;22.35;nan
73455;BME280;61690;51.824;6.306;2022-07-06T08:59:06;102455.63;;;22.35;nan
73455;BME280;61690;51.824;6.306;2022-07-06T09:01:35;102456.22;;;22.40;nan
73455;BME280;61690;51.824;6.306;2022-07-06T09:04:21;102450.13;;;22.38;nan
73455;BME280;61690;51.824;6.306;2022-07-06T09:06:49;102450.13;;;22.38;nan
73455;BME280;61690;51.824;6.306;2022-07-06T09:09:23;102452.63;;;22.41;nan
73455;BME280;61690;51.824;6.306;2022-07-06T09:12:09;102444.84;;;22.38;nan
73455;BME280;61690;51.824;6.306;2022-07-06T09:14:36;102441.41;;;22.36;nan
73455;BME280;61690;51.824;6.306;2022-07-06T09:17:04;102445.78;;;22.37;nan
73455;BME280;61690;51.824;6.306;2022-07-06T09:19:32;102452.03;;;22.36;nan
73455;BME280;61690;51.824;6.306;2022-07-06T09:22:07;102452.91;;;22.36;nan
73455;BME280;61690;51.824;6.306;2022-07-06T09:24:41;102449.38;;;22.36;nan
73455;BME280;61690;51.824;6.306;2022-07-06T09:27:15;102447.59;;;22.36;nan
73455;BME280;61690;51.824;6.306;2022-07-06T09:29:42;102446.72;;;22.36;nan
73455;BME280;61690;51.824;6.306;2022-07-06T09:32:22;102450.13;;;22.38;nan
73455;BME280;61690;51.824;6.306;2022-07-06T09:34:47;102450.13;;;22.38;nan
73455;BME280;61690;51.824;6.306;2022-07-06T09:37:14;102446.66;;;22.37;nan
73455;BME280;61690;51.824;6.306;2022-07-06T09:39:40;102451.88;;;22.39;nan
73455;BME280;61690;51.824;6.306;2022-07-06T09:42:06;102444.84;;;22.38;nan
73455;BME280;61690;51.824;6.306;2022-07-06T09:44:45;102450.13;;;22.38;nan
73455;BME280;61690;51.824;6.306;2022-07-06T09:47:12;102450.13;;;22.38;nan
73455;BME280;61690;51.824;6.306;2022-07-06T09:49:40;102459.91;;;22.37;nan
73455;BME280;61690;51.824;6.306;2022-07-06T09:52:09;102453.75;;;22.37;nan
73455;BME280;61690;51.824;6.306;2022-07-06T09:54:35;102458.09;;;22.38;nan
73455;BME280;61690;51.824;6.306;2022-07-06T09:57:13;102462.56;;;22.37;nan
73455;BME280;61690;51.824;6.306;2022-07-06T09:59:38;102459.06;;;22.37;nan
73455;BME280;61690;51.824;6.306;2022-07-06T10:02:06;102459.91;;;22.37;nan
73455;BME280;61690;51.824;6.306;2022-07-06T10:04:32;102460.75;;;22.38;nan
73455;BME280;61690;51.824;6.306;2022-07-06T10:06:58;102468.69;;;22.38;nan
73455;BME280;61690;51.824;6.306;2022-07-06T10:09:33;102462.56;;;22.37;nan
73455;BME280;61690;51.824;6.306;2022-07-06T10:12:00;102461.63;;;22.38;nan
73455;BME280;61690;51.824;6.306;2022-07-06T10:14:31;102453.75;;;22.37;nan
73455;BME280;61690;51.824;6.306;2022-07-06T10:17:02;102467.63;;;22.42;nan
73455;BME280;61690;51.824;6.306;2022-07-06T10:19:47;102461.34;;;22.43;nan
73455;BME280;61690;51.824;6.306;2022-07-06T10:22:14;102459.53;;;22.43;nan
73455;BME280;61690;51.824;6.306;2022-07-06T10:24:40;102469.31;;;22.43;nan
73455;BME280;61690;51.824;6.306;2022-07-06T10:27:09;102467.41;;;22.45;nan
73455;BME280;61690;51.824;6.306;2022-07-06T10:29:54;102465.53;;;22.47;nan
73455;BME280;61690;51.824;6.306;2022-07-06T10:32:20;102462.78;;;22.48;nan
73455;BME280;61690;51.824;6.306;2022-07-06T10:34:47;102456.66;;;22.48;nan
73455;BME280;61690;51.824;6.306;2022-07-06T10:37:45;102462.72;;;22.50;nan
73455;BME280;61690;51.824;6.306;2022-07-06T10:40:14;102458.34;;;22.49;nan
73455;BME280;61690;51.824;6.306;2022-07-06T10:42:58;102458.19;;;22.52;nan
73455;BME280;61690;51.824;6.306;2022-07-06T10:50:36;102459.88;;;22.53;nan
73455;BME280;61690;51.824;6.306;2022-07-06T10:53:02;102455.34;;;22.55;nan
73455;BME280;61690;51.824;6.306;2022-07-06T10:55:45;102447.28;;;22.57;nan
73455;BME280;61690;51.824;6.306;2022-07-06T10:58:13;102448.25;;;22.56;nan
73455;BME280;61690;51.824;6.306;2022-07-06T11:00:51;102442.88;;;22.57;nan
73455;BME280;61690;51.824;6.306;2022-07-06T11:06:06;102446.00;;;22.64;nan
73455;BME280;61690;51.824;6.306;2022-07-06T11:08:52;102441.28;;;22.69;nan
73455;BME280;61690;51.824;6.306;2022-07-06T11:16:26;102444.63;;;22.73;nan
73455;BME280;61690;51.824;6.306;2022-07-06T11:19:02;102443.56;;;22.75;nan
73455;BME280;61690;51.824;6.306;2022-07-06T11:21:50;102438.19;;;22.77;nan
73455;BME280;61690;51.824;6.306;2022-07-06T11:24:19;102435.53;;;22.77;nan
73455;BME280;61690;51.824;6.306;2022-07-06T11:26:46;102439.03;;;22.77;nan
73455;BME280;61690;51.824;6.306;2022-07-06T11:29:12;102437.22;;;22.78;nan
73455;BME280;61690;51.824;6.306;2022-07-06T11:31:57;102427.38;;;22.80;nan
73455;BME280;61690;51.824;6.306;2022-07-06T11:34:31;102425.31;;;22.85;nan
73455;BME280;61690;51.824;6.306;2022-07-06T11:36:59;102424.72;;;22.80;nan
73455;BME280;61690;51.824;6.306;2022-07-06T11:39:43;102426.25;;;22.84;nan
73455;BME280;61690;51.824;6.306;2022-07-06T11:42:11;102425.31;;;22.85;nan
73455;BME280;61690;51.824;6.306;2022-07-06T11:44:38;102428.91;;;22.84;nan
73455;BME280;61690;51.824;6.306;2022-07-06T11:47:04;102421.97;;;22.81;nan
73455;BME280;61690;51.824;6.306;2022-07-06T11:52:14;102423.25;;;22.90;nan
73455;BME280;61690;51.824;6.306;2022-07-06T11:54:40;102418.41;;;22.82;nan
73455;BME280;61690;51.824;6.306;2022-07-06T11:57:09;102415.75;;;22.82;nan
73455;BME280;61690;51.824;6.306;2022-07-06T11:59:38;102426.44;;;22.81;nan
73455;BME280;61690;51.824;6.306;2022-07-06T12:02:21;102417.09;;;22.59;nan
73455;BME280;61690;51.824;6.306;2022-07-06T12:04:47;102411.16;;;22.70;nan
73455;BME280;61690;51.824;6.306;2022-07-06T12:07:14;102403.47;;;22.65;nan
73455;BME280;61690;51.824;6.306;2022-07-06T12:09:42;102404.59;;;22.61;nan
73455;BME280;61690;51.824;6.306;2022-07-06T12:12:19;102398.94;;;22.67;nan
73455;BME280;61690;51.824;6.306;2022-07-06T12:14:44;102400.97;;;22.78;nan
73455;BME280;61690;51.824;6.306;2022-07-06T12:17:11;102405.47;;;22.76;nan
73455;BME280;61690;51.824;6.306;2022-07-06T12:19:38;102404.25;;;22.82;nan
73455;BME280;61690;51.824;6.306;2022-07-06T12:22:05;102397.63;;;22.75;nan
73455;BME280;61690;51.824;6.306;2022-07-06T12:24:45;102403.38;;;22.67;nan
73455;BME280;61690;51.824;6.306;2022-07-06T12:27:15;102398.94;;;22.67;nan
73455;BME280;61690;51.824;6.306;2022-07-06T12:29:41;102381.88;;;22.71;nan
73455;BME280;61690;51.824;6.306;2022-07-06T12:32:17;102376.13;;;22.79;nan
73455;BME280;61690;51.824;6.306;2022-07-06T12:34:46;102377.34;;;22.74;nan
73455;BME280;61690;51.824;6.306;2022-07-06T12:37:17;102382.16;;;22.67;nan
73455;BME280;61690;51.824;6.306;2022-07-06T12:39:45;102376.19;;;22.63;nan
73455;BME280;61690;51.824;6.306;2022-07-06T12:42:13;102372.22;;;22.70;nan
73455;BME280;61690;51.824;6.306;2022-07-06T12:45:05;102374.69;;;22.74;nan
73455;BME280;61690;51.824;6.306;2022-07-06T12:47:32;102375.28;;;22.79;nan
73455;BME280;61690;51.824;6.306;2022-07-06T12:50:08;102373.09;;;22.85;nan
73455;BME280;61690;51.824;6.306;2022-07-06T12:52:40;102375.47;;;22.90;nan
73455;BME280;61690;51.824;6.306;2022-07-06T12:55:09;102371.47;;;22.83;nan
73455;BME280;61690;51.824;6.306;2022-07-06T12:57:45;102378.94;;;22.76;nan
73455;BME280;61690;51.824;6.306;2022-07-06T13:00:11;102379.22;;;22.57;nan
73455;BME280;61690;51.824;6.306;2022-07-06T13:02:36;102369.75;;;22.67;nan
73455;BME280;61690;51.824;6.306;2022-07-06T13:05:25;102374.88;;;22.70;nan
73455;BME280;61690;51.824;6.306;2022-07-06T13:07:53;102381.59;;;22.76;nan
73455;BME280;61690;51.824;6.306;2022-07-06T13:10:20;102379.44;;;22.83;nan
73455;BME280;61690;51.824;6.306;2022-07-06T13:12:45;102371.56;;;22.67;nan
73455;BME280;61690;51.824;6.306;2022-07-06T13:15:20;102366.84;;;22.86;nan
73455;BME280;61690;51.824;6.306;2022-07-06T13:17:51;102371.47;;;22.83;nan
73455;BME280;61690;51.824;6.306;2022-07-06T13:20:16;102367.53;;;22.90;nan
73455;BME280;61690;51.824;6.306;2022-07-06T13:22:42;102368.94;;;22.96;nan
73455;BME280;61690;51.824;6.306;2022-07-06T13:25:08;102366.66;;;22.89;nan
73455;BME280;61690;51.824;6.306;2022-07-06T13:27:36;102367.63;;;22.88;nan